createdAt,value
2018-11-11T09:20:04.723Z,12.70
2018-11-11T09:22:45.119Z,12.60
2018-11-11T09:25:23.886Z,12.70
2018-11-11T09:28:02.803Z,12.70
2018-11-11T09:30:40.041Z,12.90
2018-11-11T09:33:13.917Z,12.80
2018-11-11T09:35:55.324Z,12.90
2018-11-11T09:38:35.567Z,12.90
2018-11-11T09:41:11.467Z,12.90
2018-11-11T09:43:44.822Z,12.80
2018-11-11T12:37:43.866Z,12.90
2018-11-11T12:40:21.853Z,14.70
2018-11-11T12:43:02.462Z,14.70
2018-11-11T12:45:34.448Z,14.80
2018-11-11T12:50:43.716Z,15.00
2018-11-11T12:53:17.680Z,14.90
2018-11-11T12:55:47.338Z,14.70
2018-11-11T12:58:18.324Z,14.50
2018-11-11T13:00:54.340Z,14.40
2018-11-11T13:03:36.685Z,14.40
2018-11-11T13:06:07.670Z,14.40
2018-11-11T13:08:42.503Z,14.30
2018-11-11T13:11:22.065Z,14.30
2018-11-11T13:13:52.594Z,14.40
2018-11-11T13:16:25.106Z,14.60
2018-11-11T13:18:56.042Z,14.30
2018-11-11T13:21:27.268Z,14.50
2018-11-11T19:21:03.438Z,12.20
2018-11-11T19:23:36.586Z,12.20
2018-11-11T19:26:12.276Z,12.10
2018-11-11T19:28:46.918Z,11.90
2018-11-11T19:34:26.361Z,11.80
2018-11-11T19:36:58.061Z,11.90
2018-11-11T19:39:31.989Z,12.00
2018-11-11T19:42:03.703Z,12.00
2018-11-11T19:44:33.975Z,12.00
2018-11-11T19:47:03.367Z,12.20
2018-11-11T19:49:35.549Z,12.30
2018-11-11T19:52:06.881Z,12.20
2018-11-11T19:54:37.206Z,12.00
2018-11-11T19:57:09.357Z,11.90
2018-11-11T19:59:43.320Z,12.00
2018-11-11T20:17:29.264Z,12.00
2018-11-11T20:20:07.181Z,12.00
2018-11-11T20:22:38.255Z,12.00
2018-11-11T20:25:09.090Z,11.80
2018-11-11T20:27:40.033Z,11.90
2018-11-11T20:30:14.187Z,11.80
2018-11-11T20:32:44.937Z,11.70
2018-11-11T20:35:15.807Z,11.60
2018-11-11T20:37:45.570Z,11.50
2018-11-11T20:40:16.053Z,11.50
2018-11-11T20:42:45.836Z,11.50
2018-11-11T20:45:17.978Z,11.50
2018-11-11T20:47:48.275Z,11.40
2018-11-11T20:50:19.741Z,11.40
2018-11-11T20:52:51.101Z,11.30
2018-11-11T20:55:23.230Z,11.20
2018-11-11T20:57:55.258Z,11.30
